createdAt,value
2022-11-29T00:01:21.198Z,50.92
2022-11-29T00:03:48.322Z,69.65
2022-11-29T00:06:17.964Z,58.97
2022-11-29T00:08:45.778Z,60.30
2022-11-29T00:11:35.928Z,58.33
2022-11-29T00:14:03.047Z,61.55
2022-11-29T00:16:30.145Z,61.90
2022-11-29T00:18:57.096Z,56.38
2022-11-29T00:21:24.218Z,58.97
2022-11-29T00:24:11.899Z,63.63
2022-11-29T00:27:13.829Z,70.70
2022-11-29T00:29:54.379Z,57.17
2022-11-29T00:32:21.596Z,58.33
2022-11-29T00:35:09.938Z,75.15
2022-11-29T00:37:51.149Z,72.70
2022-11-29T00:40:18.313Z,62.08
2022-11-29T00:43:05.867Z,55.42
2022-11-29T00:45:46.464Z,56.72
2022-11-29T00:48:13.402Z,62.42
2022-11-29T00:50:40.493Z,58.58
2022-11-29T00:53:27.845Z,60.72
2022-11-29T00:56:28.837Z,57.40
2022-11-29T00:59:19.485Z,64.07
2022-11-29T01:01:46.509Z,62.20
2022-11-29T01:04:13.576Z,54.63
2022-11-29T01:06:40.856Z,61.45
2022-11-29T01:09:07.997Z,56.50
2022-11-29T01:11:35.559Z,72.35
2022-11-29T01:14:04.884Z,65.00
2022-11-29T01:16:32.951Z,54.63
2022-11-29T01:19:00.570Z,60.20
2022-11-29T01:21:27.717Z,60.28
2022-11-29T01:23:55.201Z,54.85
2022-11-29T01:26:43.895Z,52.00
2022-11-29T01:29:24.780Z,48.05
2022-11-29T01:31:51.720Z,48.42
2022-11-29T01:34:38.899Z,49.33
2022-11-29T01:37:19.524Z,43.13
2022-11-29T01:39:46.634Z,53.15
2022-11-29T01:42:33.879Z,48.08
2022-11-29T01:45:23.293Z,42.75
2022-11-29T01:47:55.180Z,48.05
2022-11-29T01:50:22.320Z,51.10
2022-11-29T01:52:49.598Z,47.63
2022-11-29T01:55:16.967Z,49.67
2022-11-29T01:57:44.460Z,49.17
2022-11-29T02:00:16.125Z,51.85
2022-11-29T02:03:07.435Z,43.85
2022-11-29T02:05:57.894Z,42.75
2022-11-29T02:08:58.921Z,45.17
2022-11-29T02:11:49.188Z,37.92
2022-11-29T02:14:28.282Z,47.47
2022-11-29T02:16:56.803Z,42.33
2022-11-29T02:19:36.015Z,48.63
2022-11-29T02:22:10.727Z,43.63
2022-11-29T02:24:56.277Z,50.33
2022-11-29T02:27:57.096Z,42.03
2022-11-29T02:30:37.579Z,46.20
2022-11-29T02:33:48.900Z,43.72
2022-11-29T02:37:08.567Z,51.25
2022-11-29T02:39:57.607Z,44.95
2022-11-29T02:43:04.878Z,41.63
2022-11-29T02:46:19.158Z,52.13
2022-11-29T02:49:03.102Z,48.88
2022-11-29T02:52:00.922Z,52.38
2022-11-29T02:54:50.443Z,43.55
2022-11-29T02:57:23.502Z,36.95
2022-11-29T03:00:05.341Z,58.27
2022-11-29T03:03:30.944Z,58.60
2022-11-29T03:06:12.197Z,40.28
2022-11-29T03:09:00.876Z,45.38
2022-11-29T03:11:53.152Z,52.97
2022-11-29T03:14:52.894Z,42.22
2022-11-29T03:18:19.950Z,49.28
2022-11-29T03:21:26.977Z,41.50
2022-11-29T03:24:26.122Z,38.17
2022-11-29T03:27:04.178Z,41.75
2022-11-29T03:29:40.614Z,42.13
2022-11-29T03:32:27.425Z,39.78
2022-11-29T03:35:28.935Z,44.08
2022-11-29T03:38:32.976Z,43.83
2022-11-29T03:41:57.973Z,51.05
2022-11-29T03:45:14.944Z,45.53
2022-11-29T03:48:07.663Z,50.95
2022-11-29T03:50:49.743Z,48.10
2022-11-29T03:53:37.184Z,48.92
2022-11-29T03:56:41.888Z,43.55
2022-11-29T03:59:37.237Z,45.78
2022-11-29T04:02:42.028Z,55.38
2022-11-29T04:05:53.528Z,44.92
2022-11-29T04:08:51.392Z,40.70
2022-11-29T04:11:30.460Z,56.85
2022-11-29T04:14:26.849Z,54.55
2022-11-29T04:17:31.964Z,49.70
2022-11-29T04:21:00.039Z,39.25
2022-11-29T04:24:02.320Z,49.17
2022-11-29T04:26:38.315Z,44.20
2022-11-29T04:29:30.929Z,43.53
2022-11-29T04:32:34.631Z,54.15
2022-11-29T04:35:27.990Z,44.45
2022-11-29T04:38:45.418Z,38.13
2022-11-29T04:42:00.023Z,57.83
2022-11-29T04:45:12.000Z,44.55
2022-11-29T04:48:18.297Z,42.65
2022-11-29T04:51:04.044Z,47.25
2022-11-29T04:53:40.786Z,47.45
2022-11-29T04:56:53.002Z,44.53
2022-11-29T05:00:06.422Z,42.95
2022-11-29T05:03:08.887Z,45.88
2022-11-29T05:06:06.290Z,44.42
2022-11-29T05:08:36.234Z,42.15
2022-11-29T05:11:23.441Z,52.55
2022-11-29T05:13:59.086Z,47.13
2022-11-29T05:16:44.909Z,44.90
2022-11-29T05:19:19.081Z,47.08
2022-11-29T05:21:58.236Z,44.53
2022-11-29T05:24:44.262Z,49.58
2022-11-29T05:27:42.309Z,42.33
2022-11-29T05:30:22.242Z,45.97
2022-11-29T05:33:11.967Z,52.05
2022-11-29T05:36:58.005Z,47.45
2022-11-29T05:39:50.809Z,42.03
2022-11-29T05:42:50.009Z,49.35
2022-11-29T05:46:08.350Z,51.92
2022-11-29T05:48:53.453Z,42.20
2022-11-29T05:51:22.449Z,46.53
2022-11-29T05:54:16.039Z,60.22
2022-11-29T05:56:47.577Z,46.35
2022-11-29T05:59:21.900Z,49.38
2022-11-29T06:02:27.193Z,49.58
2022-11-29T06:05:42.028Z,49.45
2022-11-29T06:09:16.792Z,45.25
2022-11-29T06:12:06.148Z,51.22
2022-11-29T06:15:13.748Z,51.75
2022-11-29T06:18:32.049Z,50.88
2022-11-29T06:21:40.273Z,53.28
2022-11-29T06:26:49.286Z,44.33
2022-11-29T06:29:51.014Z,48.65
2022-11-29T06:32:44.157Z,48.30
2022-11-29T06:35:56.032Z,46.65
2022-11-29T06:38:57.029Z,47.33
2022-11-29T06:41:58.025Z,59.03
2022-11-29T06:44:59.002Z,50.58
2022-11-29T06:47:49.204Z,50.75
2022-11-29T06:51:07.099Z,56.83
2022-11-29T06:54:11.160Z,45.30
2022-11-29T06:57:02.916Z,54.47
2022-11-29T06:59:39.089Z,53.88
2022-11-29T07:02:45.056Z,53.65
2022-11-29T07:05:28.766Z,53.15
2022-11-29T07:08:01.789Z,49.78
2022-11-29T07:10:32.553Z,58.88
2022-11-29T07:13:00.046Z,57.63
2022-11-29T07:15:28.243Z,53.22
2022-11-29T07:18:10.767Z,59.42
2022-11-29T07:21:08.241Z,58.92
2022-11-29T07:23:45.572Z,58.97
2022-11-29T07:26:35.314Z,62.92
2022-11-29T07:29:24.309Z,60.42
2022-11-29T07:32:27.035Z,72.72
2022-11-29T07:35:20.371Z,67.18
2022-11-29T07:38:41.065Z,72.43
2022-11-29T07:42:05.179Z,75.93
2022-11-29T07:45:24.566Z,71.28
2022-11-29T07:47:52.210Z,81.35
2022-11-29T07:50:21.406Z,68.03
2022-11-29T07:52:49.309Z,69.60
2022-11-29T07:55:38.011Z,120.57
2022-11-29T07:58:05.407Z,73.50
2022-11-29T08:01:01.080Z,61.97
2022-11-29T08:04:02.118Z,73.05
2022-11-29T08:07:03.120Z,63.55
2022-11-29T08:10:04.119Z,64.18
2022-11-29T08:13:05.097Z,58.47
2022-11-29T08:16:06.104Z,67.32
2022-11-29T08:19:07.083Z,63.80
2022-11-29T08:21:48.330Z,66.72
2022-11-29T08:24:15.298Z,69.32
2022-11-29T08:26:42.343Z,70.65
2022-11-29T08:29:09.313Z,70.25
2022-11-29T08:31:41.695Z,67.95
2022-11-29T08:34:37.131Z,74.20
2022-11-29T08:37:31.379Z,76.43
2022-11-29T08:40:12.603Z,103.63
2022-11-29T08:43:00.110Z,94.57
2022-11-29T08:46:06.178Z,91.63
2022-11-29T08:48:48.025Z,60.33
2022-11-29T08:51:35.117Z,59.22
2022-11-29T08:54:36.180Z,61.13
2022-11-29T08:57:40.194Z,60.75
2022-11-29T09:00:21.635Z,69.32
2022-11-29T09:02:48.885Z,71.40
2022-11-29T09:05:16.028Z,92.35
2022-11-29T09:07:43.612Z,69.00
2022-11-29T09:10:11.444Z,76.95
2022-11-29T09:12:41.565Z,70.95
2022-11-29T09:15:10.358Z,71.43
2022-11-29T09:17:37.858Z,62.00
2022-11-29T09:23:01.478Z,62.25
2022-11-29T09:25:34.885Z,64.25
2022-11-29T09:28:12.193Z,62.78
2022-11-29T09:30:41.472Z,46.15
2022-11-29T09:33:30.175Z,65.80
2022-11-29T09:36:28.849Z,59.45
2022-11-29T09:39:03.067Z,54.03
2022-11-29T09:42:11.243Z,53.70
2022-11-29T09:45:04.175Z,49.53
2022-11-29T09:47:53.262Z,70.20
2022-11-29T09:50:43.186Z,46.67
2022-11-29T09:53:28.993Z,47.20
2022-11-29T09:56:11.408Z,39.72
2022-11-29T09:58:47.620Z,58.40
2022-11-29T10:01:22.055Z,41.10
2022-11-29T10:04:19.209Z,32.33
2022-11-29T10:08:01.205Z,36.08
2022-11-29T10:10:50.553Z,36.17
2022-11-29T10:13:25.424Z,32.70
2022-11-29T10:16:01.945Z,64.57
2022-11-29T10:18:34.669Z,35.10
2022-11-29T10:21:12.870Z,29.67
2022-11-29T10:23:51.227Z,34.85
2022-11-29T10:26:20.866Z,35.17
2022-11-29T10:28:49.488Z,37.47
2022-11-29T10:31:36.523Z,42.67
2022-11-29T10:34:35.283Z,31.52
2022-11-29T10:37:24.267Z,39.63
2022-11-29T10:39:58.758Z,29.27
2022-11-29T10:43:01.149Z,28.15
2022-11-29T10:45:56.100Z,26.25
2022-11-29T10:48:32.329Z,30.10
2022-11-29T10:51:31.452Z,32.78
2022-11-29T10:54:33.867Z,33.17
2022-11-29T10:57:02.433Z,23.85
2022-11-29T10:59:49.219Z,26.15
2022-11-29T11:02:50.165Z,28.50
2022-11-29T11:05:40.199Z,28.98
2022-11-29T11:08:44.190Z,25.42
2022-11-29T11:11:46.150Z,29.83
2022-11-29T11:14:33.225Z,30.42
2022-11-29T11:17:30.130Z,27.45
2022-11-29T11:20:34.232Z,23.50
2022-11-29T11:23:27.336Z,26.80
2022-11-29T11:26:14.902Z,22.30
2022-11-29T11:29:00.489Z,25.23
2022-11-29T11:31:38.057Z,28.58
2022-11-29T11:34:46.470Z,28.95
2022-11-29T11:37:32.443Z,23.65
2022-11-29T11:40:18.382Z,30.75
2022-11-29T11:43:05.290Z,26.80
2022-11-29T11:45:53.596Z,27.50
2022-11-29T11:48:22.189Z,28.33
2022-11-29T11:50:56.397Z,30.63
2022-11-29T11:53:31.945Z,23.08
2022-11-29T11:56:26.197Z,23.63
2022-11-29T11:59:14.486Z,21.25
2022-11-29T12:01:41.461Z,25.40
2022-11-29T12:04:33.489Z,25.20
2022-11-29T12:07:45.213Z,22.05
2022-11-29T12:10:19.967Z,26.35
2022-11-29T12:12:49.324Z,22.88
2022-11-29T12:15:32.468Z,23.00
2022-11-29T12:18:34.263Z,25.08
2022-11-29T12:24:36.394Z,21.42
2022-11-29T12:27:06.165Z,25.70
2022-11-29T12:29:36.815Z,24.25
2022-11-29T12:32:10.182Z,22.60
2022-11-29T12:35:31.222Z,18.80
2022-11-29T12:38:34.358Z,25.48
2022-11-29T12:41:41.250Z,20.58
2022-11-29T12:44:31.080Z,25.60
2022-11-29T12:47:36.083Z,20.48
2022-11-29T12:50:42.318Z,20.27
2022-11-29T12:54:01.253Z,22.90
2022-11-29T12:57:09.282Z,21.58
2022-11-29T13:00:14.712Z,20.30
2022-11-29T13:02:52.977Z,20.42
2022-11-29T13:06:00.241Z,18.17
2022-11-29T13:09:01.233Z,26.55
2022-11-29T13:11:53.183Z,22.30
2022-11-29T13:14:45.383Z,25.58
2022-11-29T13:17:20.769Z,28.48
2022-11-29T13:19:58.423Z,22.20
2022-11-29T13:22:30.883Z,29.65
2022-11-29T13:25:01.594Z,19.75
2022-11-29T13:27:37.165Z,19.08
2022-11-29T13:30:05.203Z,19.50
2022-11-29T13:32:36.409Z,20.30
2022-11-29T13:35:33.619Z,15.43
2022-11-29T13:38:49.254Z,20.48
2022-11-29T13:42:24.265Z,19.05
2022-11-29T13:45:17.166Z,34.97
2022-11-29T13:48:09.249Z,16.25
2022-11-29T13:51:11.290Z,19.65
2022-11-29T13:53:53.032Z,19.85
2022-11-29T13:56:54.269Z,18.25
2022-11-29T14:00:02.278Z,19.83
2022-11-29T14:02:42.901Z,21.42
2022-11-29T14:05:25.900Z,18.17
2022-11-29T14:08:27.314Z,20.35
2022-11-29T14:11:04.002Z,19.05
2022-11-29T14:13:47.853Z,18.55
2022-11-29T14:16:52.315Z,22.67
2022-11-29T14:19:53.275Z,17.85
2022-11-29T14:23:19.306Z,20.02
2022-11-29T14:26:00.743Z,19.55
2022-11-29T14:28:29.932Z,19.77
2022-11-29T14:31:07.768Z,23.63
2022-11-29T14:34:10.406Z,22.98
2022-11-29T14:37:28.393Z,22.67
2022-11-29T14:40:17.942Z,19.52
2022-11-29T14:43:07.385Z,33.35
2022-11-29T14:46:30.471Z,31.13
2022-11-29T14:49:40.357Z,22.45
2022-11-29T14:52:45.290Z,29.33
2022-11-29T14:58:31.045Z,24.33
2022-11-29T15:01:06.624Z,25.77
2022-11-29T15:03:45.382Z,21.20
2022-11-29T15:06:27.310Z,22.98
2022-11-29T15:08:57.588Z,24.20
2022-11-29T15:11:33.976Z,25.40
2022-11-29T15:14:24.260Z,29.52
2022-11-29T15:16:58.552Z,27.23
2022-11-29T15:19:40.647Z,25.60
2022-11-29T15:22:27.779Z,27.15
2022-11-29T15:25:12.335Z,25.20
2022-11-29T15:27:57.403Z,28.33
2022-11-29T15:30:39.167Z,27.38
2022-11-29T15:33:22.341Z,29.70
2022-11-29T15:36:24.339Z,25.48
2022-11-29T15:39:11.406Z,28.80
2022-11-29T15:42:17.357Z,23.55
2022-11-29T15:45:29.638Z,26.95
2022-11-29T15:48:44.296Z,28.23
2022-11-29T15:51:37.122Z,28.17
2022-11-29T15:54:13.026Z,26.20
2022-11-29T15:56:56.021Z,30.27
2022-11-29T15:59:31.991Z,28.02
2022-11-29T16:02:05.704Z,25.35
2022-11-29T16:04:33.187Z,35.72
2022-11-29T16:07:20.524Z,30.25
2022-11-29T16:10:12.763Z,28.90
2022-11-29T16:12:53.828Z,28.88
2022-11-29T16:15:40.424Z,28.35
2022-11-29T16:18:26.351Z,28.10
2022-11-29T16:21:05.983Z,28.77
2022-11-29T16:23:56.374Z,34.35
2022-11-29T16:26:41.949Z,26.98
2022-11-29T16:29:30.799Z,25.98
2022-11-29T16:31:58.243Z,31.10
2022-11-29T16:34:45.691Z,49.53
2022-11-29T16:37:55.388Z,29.17
2022-11-29T16:40:49.330Z,30.00
2022-11-29T16:44:02.534Z,33.20
2022-11-29T16:46:55.648Z,31.67
2022-11-29T16:49:34.938Z,31.90
2022-11-29T16:52:03.890Z,28.00
2022-11-29T16:54:34.304Z,34.28
2022-11-29T16:57:06.682Z,38.17
2022-11-29T16:59:35.372Z,29.08
2022-11-29T17:02:26.472Z,36.53
2022-11-29T17:05:07.305Z,28.88
2022-11-29T17:07:38.232Z,30.98
2022-11-29T17:10:08.398Z,34.53
2022-11-29T17:12:35.583Z,29.13
2022-11-29T17:15:02.696Z,33.63
2022-11-29T17:17:50.364Z,35.22
2022-11-29T17:20:31.104Z,34.03
2022-11-29T17:22:58.091Z,32.75
2022-11-29T17:25:25.118Z,40.20
2022-11-29T17:27:52.373Z,41.53
2022-11-29T17:30:39.379Z,43.13
2022-11-29T17:33:43.329Z,34.75
2022-11-29T17:36:51.427Z,35.17
2022-11-29T17:39:32.642Z,42.85
2022-11-29T17:42:19.407Z,36.40
2022-11-29T17:45:00.036Z,38.63
2022-11-29T17:47:26.967Z,36.35
2022-11-29T17:49:53.921Z,38.25
2022-11-29T17:52:20.952Z,40.30
2022-11-29T17:54:47.861Z,47.78
2022-11-29T17:57:14.888Z,44.72
2022-11-29T17:59:41.870Z,39.03
2022-11-29T18:02:29.460Z,42.72
2022-11-29T18:05:23.620Z,43.15
2022-11-29T18:08:17.390Z,40.03
2022-11-29T18:11:13.650Z,39.88
2022-11-29T18:13:40.735Z,39.10
2022-11-29T18:16:13.863Z,42.20
2022-11-29T18:18:41.515Z,43.73
2022-11-29T18:21:10.147Z,38.75
2022-11-29T18:23:39.823Z,34.97
2022-11-29T18:26:11.489Z,33.58
2022-11-29T18:28:58.387Z,46.00
2022-11-29T18:32:00.406Z,37.53
2022-11-29T18:34:40.942Z,36.45
2022-11-29T18:37:12.355Z,43.50
2022-11-29T18:39:42.401Z,44.10
2022-11-29T18:42:29.415Z,39.40
2022-11-29T18:45:10.324Z,36.72
2022-11-29T18:47:57.461Z,40.22
2022-11-29T18:50:38.019Z,41.38
2022-11-29T18:53:04.862Z,38.63
2022-11-29T18:55:32.057Z,35.20
2022-11-29T18:57:58.960Z,37.22
2022-11-29T19:00:25.999Z,42.00
2022-11-29T19:02:53.389Z,45.90
2022-11-29T19:05:20.285Z,33.83
2022-11-29T19:08:07.541Z,48.42
2022-11-29T19:11:08.425Z,38.38
2022-11-29T19:14:04.064Z,36.70
2022-11-29T19:16:34.516Z,37.38
2022-11-29T19:19:02.119Z,33.00
2022-11-29T19:21:32.017Z,33.88
2022-11-29T19:24:21.390Z,37.65
2022-11-29T19:27:03.240Z,37.88
2022-11-29T19:29:50.640Z,36.30
2022-11-29T19:32:51.447Z,40.63
2022-11-29T19:35:32.010Z,36.20
2022-11-29T19:37:59.098Z,43.80
2022-11-29T19:40:26.473Z,35.35
2022-11-29T19:43:13.463Z,39.28
2022-11-29T19:45:54.076Z,41.13
2022-11-29T19:48:21.306Z,44.70
2022-11-29T19:50:48.247Z,38.72
2022-11-29T19:53:16.150Z,43.53
2022-11-29T19:55:44.247Z,45.50
2022-11-29T19:58:31.440Z,43.38
2022-11-29T20:01:42.879Z,41.70
2022-11-29T20:04:44.445Z,41.92
2022-11-29T20:07:28.740Z,43.03
2022-11-29T20:09:55.690Z,35.65
2022-11-29T20:12:22.848Z,51.97
2022-11-29T20:15:09.481Z,44.85
2022-11-29T20:18:11.440Z,34.45
2022-11-29T20:21:26.545Z,36.28
2022-11-29T20:24:07.869Z,35.33
2022-11-29T20:26:38.213Z,38.80
2022-11-29T20:29:08.320Z,46.58
2022-11-29T20:31:56.534Z,44.95
2022-11-29T20:34:57.452Z,36.80
2022-11-29T20:38:03.465Z,44.55
2022-11-29T20:41:02.647Z,38.70
2022-11-29T20:43:58.008Z,43.70
2022-11-29T20:46:25.987Z,42.35
2022-11-29T20:48:54.208Z,39.85
2022-11-29T20:51:36.874Z,42.40
2022-11-29T20:54:03.973Z,47.20
2022-11-29T20:56:30.862Z,44.20
2022-11-29T20:58:57.971Z,48.65
2022-11-29T21:01:47.546Z,45.75
2022-11-29T21:04:48.766Z,42.05
2022-11-29T21:07:49.731Z,42.53
2022-11-29T21:10:50.597Z,46.55
2022-11-29T21:13:34.436Z,43.80
2022-11-29T21:16:02.259Z,47.05
2022-11-29T21:18:33.682Z,45.85
2022-11-29T21:21:16.090Z,47.60
2022-11-29T21:24:07.490Z,48.33
2022-11-29T21:26:41.937Z,50.25
2022-11-29T21:29:14.911Z,47.10
2022-11-29T21:32:07.513Z,50.10
2022-11-29T21:35:08.508Z,51.25
2022-11-29T21:38:12.517Z,53.20
2022-11-29T21:41:13.489Z,51.78
2022-11-29T21:44:08.265Z,49.45
2022-11-29T21:47:09.512Z,54.60
2022-11-29T21:49:52.650Z,52.70
2022-11-29T21:52:22.773Z,48.33
2022-11-29T21:54:50.239Z,65.32
2022-11-29T21:57:17.190Z,60.60
2022-11-29T21:59:44.218Z,55.75
2022-11-29T22:02:11.272Z,65.40
2022-11-29T22:04:38.312Z,55.20
2022-11-29T22:07:05.315Z,51.20
2022-11-29T22:09:52.641Z,56.38
2022-11-29T22:12:34.901Z,46.42
2022-11-29T22:15:25.063Z,52.30
2022-11-29T22:18:26.590Z,53.97
2022-11-29T22:21:08.830Z,49.00
2022-11-29T22:23:36.328Z,58.38
2022-11-29T22:26:07.434Z,55.30
2022-11-29T22:28:37.167Z,54.22
2022-11-29T22:31:07.448Z,53.78
2022-11-29T22:33:34.870Z,58.33
2022-11-29T22:36:11.099Z,59.05
2022-11-29T22:38:58.865Z,54.45
2022-11-29T22:41:59.651Z,51.90
2022-11-29T22:44:40.090Z,70.35
2022-11-29T22:47:07.189Z,57.53
2022-11-29T22:49:35.921Z,54.63
2022-11-29T22:52:24.775Z,58.08
2022-11-29T22:55:06.621Z,57.50
2022-11-29T22:57:33.885Z,53.50
2022-11-29T23:00:22.575Z,57.58
2022-11-29T23:03:23.550Z,57.30
2022-11-29T23:06:17.485Z,64.45
2022-11-29T23:08:47.105Z,60.90
2022-11-29T23:11:17.007Z,60.25
2022-11-29T23:13:44.567Z,57.95
2022-11-29T23:16:34.573Z,54.78
2022-11-29T23:19:36.530Z,68.70
2022-11-29T23:22:38.543Z,65.47
2022-11-29T23:25:19.077Z,63.45
2022-11-29T23:27:45.978Z,69.93
2022-11-29T23:30:13.686Z,60.25
2022-11-29T23:32:40.557Z,67.10
2022-11-29T23:35:27.566Z,61.38
2022-11-29T23:38:08.343Z,60.60
2022-11-29T23:40:35.423Z,65.15
2022-11-29T23:43:36.613Z,59.05
2022-11-29T23:46:30.726Z,62.80
2022-11-29T23:49:11.255Z,62.60
2022-11-29T23:51:38.243Z,67.32
2022-11-29T23:54:05.331Z,63.00
2022-11-29T23:56:35.456Z,63.25
2022-11-29T23:59:02.660Z,64.05
